• Join FlightAware (Why Join?)
  • Login
  • US Flag 
06:29PM EDT


 

Airport Tracker/Info


-or-


 

Live Flight TrackerFlight Track Log ✈ ASQ4428 ✈ 04-May-2012 ✈ KEWR - KMCI

Flight Track Log - Related Links

Times and Time Zones

All times are in EDT time to prevent confusion due to time zone crossing. See the ASQ4428 flight status page for this flight to view local times or setup timezone preferences in your user account.

Time Position Orientation Groundspeed Altitude Reporting Facility
EDT Latitude Longitude Course Direction KTS MPH feet Rate Location/Type
01:01PM 40.6500 -74.1833 252° West 181 208 1,100  Level New York TRACON
01:02PM 40.6333 -74.2500 270° West 223 257 2,700 1,920 Climbing New York TRACON
01:03PM 40.6333 -74.3167 282° West 240 276 4,800 2,160 Climbing New York TRACON
01:04PM 40.6500 -74.4167 270° West 240 276 7,100 2,100 Climbing New York TRACON
01:05PM 40.6500 -74.5000 285° West 241 277 9,100 1,800 Climbing New York TRACON
01:06PM 40.6667 -74.5833 297° West 246 283 10,600 1,260 Climbing New York TRACON
01:07PM 40.6858 -74.6325 287° West 264 304 11,100 900 Climbing New York Center
01:08PM 40.7042 -74.7131 288° West 292 336 12,000 960 Climbing New York Center
01:09PM 40.7336 -74.8297 288° West 298 343 13,100 1,020 Climbing New York Center
01:10PM 40.7608 -74.9436 288° West 317 365 14,100 960 Climbing New York Center
01:11PM 40.7881 -75.0575 273° West 326 375 15,100 1,020 Climbing New York Center
01:12PM 40.7922 -75.1675 266° West 331 381 16,200 1,200 Climbing New York Center
01:13PM 40.7850 -75.3014 267° West 331 381 17,500 1,200 Climbing New York Center
01:14PM 40.7803 -75.4244 258° West 337 388 18,600 1,260 Climbing New York Center
01:15PM 40.7611 -75.5436 259° West 343 395 20,100 1,440 Climbing New York Center
01:16PM 40.7436 -75.6603 262° West 343 395 21,600 1,440 Climbing New York Center
01:17PM 40.7306 -75.7769 261° West 337 388 23,100 1,380 Climbing New York Center
01:18PM 40.7172 -75.8939 257° West 331 381 24,400 1,380 Climbing New York Center
01:19PM 40.6975 -76.0072 260° West 331 381 25,900 1,260 Climbing New York Center
01:20PM 40.6822 -76.1183 260° West 331 381 26,900 900 Climbing New York Center
01:21PM 40.6664 -76.2375 279° West 331 381 27,800 900 Climbing New York Center
01:22PM 40.6797 -76.3536 281° West 324 373 28,800 900 Climbing New York Center
01:23PM 40.6969 -76.4700 282° West 324 373 29,700 900 Climbing New York Center
01:24PM 40.7164 -76.5867 280° West 329 379 30,700 960 Climbing New York Center
01:25PM 40.7333 -76.7086 281° West 334 384 31,600 900 Climbing New York Center
01:26PM 40.7519 -76.8308 280° West 339 390 32,600 960 Climbing New York Center
01:27PM 40.7686 -76.9528 281° West 339 390 33,600 900 Climbing New York Center
01:28PM 40.7872 -77.0750 281° West 339 390 34,500 900 Climbing New York Center
01:29PM 40.8042 -77.1892 281° West 334 384 35,400 720 Climbing New York Center
01:30PM 40.8206 -77.3058 282° West 334 384 36,000 300 Climbing New York Center
01:31PM 40.8392 -77.4228 279° West 329 379 36,000  Level New York Center
01:32PM 40.8625 -77.6178 281° West 333 383 36,000  Level Cleveland Center
01:33PM 40.8828 -77.7542 280° West 357 411 36,000  Level Cleveland Center
01:34PM 40.9006 -77.8908 281° West 376 433 36,000  Level Cleveland Center
01:35PM 40.9206 -78.0331 279° West 383 441 36,000  Level Cleveland Center
01:36PM 40.9383 -78.1781 280° West 396 456 36,000  Level Cleveland Center
01:37PM 40.9581 -78.3286 279° West 408 470 36,000  Level Cleveland Center
01:38PM 40.9753 -78.4736 279° West 408 470 36,000  Level Cleveland Center
01:39PM 40.9925 -78.6161 279° West 408 470 36,000  Level Cleveland Center
01:40PM 41.0094 -78.7586 279° West 403 464 36,000  Level Cleveland Center
01:41PM 41.0261 -78.8986 279° West 398 458 36,000  Level Cleveland Center
01:42PM 41.0428 -79.0386 279° West 398 458 36,000  Level Cleveland Center
01:43PM 41.0592 -79.1786 278° West 393 452 36,000  Level Cleveland Center
01:44PM 41.0733 -79.3217 279° West 388 447 36,000  Level Cleveland Center
01:45PM 41.0894 -79.4647 280° West 388 447 36,000  Level Cleveland Center
01:46PM 41.1075 -79.6047 278° West 388 447 36,000  Level Cleveland Center
01:47PM 41.1231 -79.7453 276° West 388 447 36,000  Level Cleveland Center
01:48PM 41.1344 -79.8911 280° West 388 447 36,000  Level Cleveland Center
01:49PM 41.1539 -80.0317 277° West 388 447 36,000  Level Cleveland Center
01:50PM 41.1672 -80.1722 278° West 388 447 36,000  Level Cleveland Center
01:51PM 41.1822 -80.3128 278° West 388 447 36,000  Level Cleveland Center
01:52PM 41.1969 -80.4589 278° West 393 452 36,000  Level Cleveland Center
01:53PM 41.2117 -80.5997 277° West 393 452 36,000  Level Cleveland Center
01:54PM 41.2239 -80.7406 278° West 387 445 36,000  Level Cleveland Center
01:55PM 41.2383 -80.8814 278° West 387 445 36,000  Level Cleveland Center
01:56PM 41.2525 -81.0222 278° West 387 445 36,000  Level Cleveland Center
01:57PM 41.2664 -81.1633 277° West 387 445 36,000  Level Cleveland Center
01:58PM 41.2803 -81.3153 278° West 387 445 36,000  Level Cleveland Center
01:59PM 41.2939 -81.4425 276° West 387 445 36,000  Level Cleveland Center
02:00PM 41.3053 -81.5836 277° West 387 445 36,000  Level Cleveland Center
02:01PM 41.3186 -81.7194 266° West 387 445 36,000  Level Cleveland Center
02:02PM 41.3108 -81.8603 265° West 387 445 36,000  Level Cleveland Center
02:03PM 41.3008 -81.9983 264° West 381 438 36,000  Level Cleveland Center
02:04PM 41.2906 -82.1389 266° West 387 445 36,000  Level Cleveland Center
02:05PM 41.2825 -82.2797 266° West 387 445 36,000  Level Cleveland Center
02:06PM 41.2739 -82.4314 266° West 387 445 36,000  Level Cleveland Center
02:07PM 41.2672 -82.5722 272° West 387 445 36,000  Level Cleveland Center
02:08PM 41.2711 -82.7106 274° West 382 440 36,000  Level Cleveland Center
02:09PM 41.2789 -82.8461 274° West 382 440 36,000  Level Cleveland Center
02:10PM 41.2864 -82.9844 275° West 382 440 36,000  Level Cleveland Center
02:11PM 41.2958 -83.1231 276° West 382 440 36,000  Level Cleveland Center
02:12PM 41.3056 -83.2533 274° West 376 433 36,000  Level Cleveland Center
02:13PM 41.3128 -83.3781 269° West 376 433 36,000  Level Cleveland Center
02:14PM 41.3114 -83.5164 262° West 376 433 36,000  Level Cleveland Center
02:15PM 41.2975 -83.6539 263° West 377 434 36,000  Level Cleveland Center
02:16PM 41.2853 -83.7914 264° West 384 442 36,000  Level Cleveland Center
02:18PM 41.2636 -84.0783 262° West 369 425 36,000  Level Chicago Center
02:19PM 41.2494 -84.2203 263° West 375 432 36,000  Level Chicago Center
02:20PM 41.2367 -84.3594 262° West 385 443 36,000  Level Chicago Center
02:21PM 41.2219 -84.5014 262° West 385 443 36,000  Level Chicago Center
02:22PM 41.2069 -84.6406 263° West 390 449 36,000  Level Chicago Center
02:23PM 41.1956 -84.7686 262° West 390 449 36,000  Level Chicago Center
02:24PM 41.1819 -84.9047 263° West 390 449 36,000  Level Chicago Center
02:25PM 41.1689 -85.0492 262° West 390 449 36,000  Level Chicago Center
02:26PM 41.1533 -85.1908 264° West 390 449 36,000  Level Chicago Center
02:27PM 41.1417 -85.3322 261° West 390 449 36,000  Level Chicago Center
02:28PM 41.1236 -85.4767 263° West 390 449 36,000  Level Chicago Center
02:29PM 41.1100 -85.6319 261° West 390 449 36,000  Level Chicago Center
02:30PM 41.0936 -85.7733 261° West 395 455 36,000  Level Chicago Center
02:31PM 41.0772 -85.9147 262° West 390 449 36,000  Level Chicago Center
02:32PM 41.0628 -86.0589 261° West 395 455 36,000  Level Chicago Center
02:33PM 41.0458 -86.2000 262° West 395 455 36,000  Level Chicago Center
02:34PM 41.0311 -86.3439 259° West 395 455 36,000  Level Chicago Center
02:35PM 41.0133 -86.4631 263° West 385 443 36,000  Level Chicago Center
02:36PM 41.0000 -86.6042 261° West 385 443 36,000  Level Chicago Center
02:37PM 40.9825 -86.7478 261° West 395 455 36,000  Level Chicago Center
02:38PM 40.9647 -86.8889 261° West 395 455 36,000  Level Chicago Center
02:39PM 40.9469 -87.0297 261° West 395 455 36,000  Level Chicago Center
02:40PM 40.9308 -87.1706 260° West 395 455 36,000  Level Chicago Center
02:41PM 40.9128 -87.3111 260° West 395 455 36,000  Level Chicago Center
02:42PM 40.8942 -87.4492 261° West 395 455 36,000  Level Chicago Center
02:43PM 40.8778 -87.5925 260° West 395 455 36,000  Level Chicago Center
02:44PM 40.8589 -87.7328 260° West 390 449 36,000  Level Chicago Center
02:45PM 40.8400 -87.8761 261° West 390 449 36,000  Level Chicago Center
02:46PM 40.8231 -88.0192 260° West 390 449 36,000  Level Chicago Center
02:47PM 40.8039 -88.1622 260° West 390 449 36,000  Level Chicago Center
02:48PM 40.7844 -88.3053 260° West 395 455 36,000  Level Chicago Center
02:49PM 40.7647 -88.4453 261° West 395 455 36,000  Level Chicago Center
02:50PM 40.7469 -88.5881 260° West 395 455 36,000  Level Chicago Center
02:51PM 40.7269 -88.7336 260° West 395 455 36,000  Level Chicago Center
02:52PM 40.7089 -88.8706 259° West 395 455 36,000  Level Chicago Center
02:53PM 40.6886 -89.0131 259° West 395 455 36,000  Level Chicago Center
02:54PM 40.6681 -89.1583 260° West 400 460 36,000  Level Chicago Center
02:55PM 40.6475 -89.3061 259° West 405 466 36,000  Level Chicago Center
02:56PM 40.6267 -89.4483 260° West 405 466 36,000  Level Chicago Center
02:57PM 40.6056 -89.6042 259° West 416 479 36,000  Level Chicago Center
02:58PM 40.5842 -89.7464 258° West 421 484 36,000  Level Chicago Center
02:59PM 40.5606 -89.8911 261° West 416 479 36,000  Level Chicago Center
03:00PM 40.5433 -90.0383 259° West 410 472 36,000  Level Chicago Center
03:03PM 40.4964 -90.3461 260° West 436 502 36,000  Level Kansas City Center
03:04PM 40.4764 -90.4917 258° West 426 490 36,000  Level Kansas City Center
03:05PM 40.4519 -90.6378 259° West 416 479 36,000  Level Kansas City Center
03:06PM 40.4294 -90.7833 259° West 411 473 36,000  Level Kansas City Center
03:07PM 40.4069 -90.9317 259° West 411 473 36,000  Level Kansas City Center
03:08PM 40.3842 -91.0800 258° West 411 473 36,000  Level Kansas City Center
03:09PM 40.3611 -91.2253 258° West 411 473 36,000  Level Kansas City Center
03:10PM 40.3342 -91.3844 258° West 411 473 36,000 -120 Level Kansas City Center
03:11PM 40.3108 -91.5325 258° West 411 473 35,800 -1,020 Descending Kansas City Center
03:12PM 40.2872 -91.6803 257° West 411 473 34,000 -1,980 Descending Kansas City Center
03:13PM 40.2617 -91.8281 258° West 411 473 31,900 -1,860 Descending Kansas City Center
03:14PM 40.2378 -91.9811 257° West 417 480 30,300 -960 Descending Kansas City Center
03:15PM 40.2117 -92.1317 257° West 422 486 30,000 -180 Descending Kansas City Center
03:16PM 40.1856 -92.2844 258° West 432 497 30,000  Level Kansas City Center
03:17PM 40.1592 -92.4400 256° West 438 504 30,000 -600 Level Kansas City Center
03:18PM 40.1303 -92.5931 244° Southwest 432 497 28,900 -1,140 Descending Kansas City Center
03:19PM 40.0822 -92.7217 244° Southwest 432 497 27,800 -1,080 Descending Kansas City Center
03:20PM 40.0281 -92.8667 243° Southwest 442 509 26,800 -1,380 Descending Kansas City Center
03:21PM 39.9636 -93.0306 243° Southwest 460 529 25,100 -1,500 Descending Kansas City Center
03:22PM 39.9092 -93.1725 243° Southwest 455 524 23,800 -1,800 Descending Kansas City Center
03:23PM 39.8564 -93.3058 243° Southwest 444 511 21,500 -2,340 Descending Kansas City Center
03:24PM 39.8094 -93.4281 241° Southwest 416 479 19,200 -2,400 Descending Kansas City Center
03:25PM 39.7583 -93.5478 243° Southwest 389 448 16,700 -2,220 Descending Kansas City Center
03:26PM 39.7175 -93.6536 244° Southwest 363 418 14,800 -1,860 Descending Kansas City Center
03:27PM 39.6786 -93.7564 242° Southwest 343 395 13,000 -1,620 Descending Kansas City Center
03:28PM 39.6375 -93.8567 237° Southwest 335 386 11,600 -1,560 Descending Kansas City Center
03:29PM 39.5900 -93.9511 237° Southwest 299 344 9,900 -1,560 Descending Kansas City Center
03:30PM 39.5489 -94.0322 249° West 281 323 8,500 -1,440 Descending Kansas City Center
03:31PM 39.5261 -94.1106 259° West 274 315 7,100 -780 Descending Kansas City Center
03:32PM 39.5119 -94.2047 261° West 264 304 7,000 -60 Descending Kansas City Center
03:33PM 39.4994 -94.3097 262° West 269 310 7,000  Level Kansas City Center
03:34PM 39.4892 -94.4039 261° West 274 315 7,000 -600 Level Kansas City Center
03:35PM 39.4789 -94.4872 262° West 274 315 5,900 -1,260 Descending Kansas City Center
03:36PM 39.4683 -94.5786 244° Southwest 274 315 4,500 -1,440 Descending Kansas City Center
03:37PM 39.4372 -94.6619 194° South 249 287 3,100 -1,080 Descending Kansas City Center
03:38PM 39.3786 -94.6806 191° South 211 243 2,400 -720 Descending Kansas City Center
03:39PM 39.3369 -94.6911 195° South 190 219 1,700 -720 Descending Kansas City Center
03:40PM 39.2911 -94.7069 195° South 152 175 1,000 -720 Descending Kansas City Center